Liberty of The Seas — C6VQ8 — position and weather

sailwx.info

Track history (hours):
 
Tides and Currents Weather Stations Pressure Air Temp Water Temp Dewpoint Dewpoint Depression Visibility Wind Speed Wind Dir Waves Ship Positions

Liberty of The Seas

Last reported at 2015-Jul-03 01:18 UTC. Time now 2015-Jul-03 12:16 UTC.
Position N 39°33' W 072°46'.

Type: Passenger vessel. MMSI: 309436000.

Date/timePositionNaut miles runAvg speedWind from/ knotsBaromVisibWave heightAir tempDewpointWater temp
2015-Jul-03 01:18N 39°33' W 072°46'1518.8
2015-Jul-03 00:30N 39°44' W 072°59'1818.9
2015-Jul-02 23:33N 39°57' W 073°15'1919.0
2015-Jul-02 22:33N 40°11' W 073°32'1818.4
2015-Jul-02 21:33N 40°25' W 073°47'1515.0
2015-Jul-02 20:33N 40°35' W 074°02'5 5.0
2015-Jul-02 19:32N 40°40' W 074°04'0 0.0
2015-Jul-02 18:32N 40°40' W 074°04'0 0.0
2015-Jul-02 17:32N 40°40' W 074°04'0 0.0
2015-Jul-02 16:32N 40°40' W 074°04'0 0.0
2015-Jul-02 15:29N 40°40' W 074°04'0 0.0
2015-Jul-02 14:32N 40°40' W 074°04'0 0.0
2015-Jul-02 13:32N 40°40' W 074°04'0 0.0
2015-Jul-02 12:32N 40°40' W 074°04'0 0.0
2015-Jul-02 11:34N 40°40' W 074°04'3 2.8
2015-Jul-02 10:34N 40°37' W 074°03'10 9.8
2015-Jul-02 09:33N 40°29' W 073°55'1514.7
2015-Jul-02 08:33N 40°22' W 073°39'1616.4
2015-Jul-02 07:33N 40°12' W 073°21'1616.3
2015-Jul-02 06:33N 40°01' W 073°06'1716.4
2015-Jul-02 05:32N 39°48' W 072°53'1616.4
2015-Jul-02 04:33N 39°36' W 072°38'1717.0
2015-Jul-02 03:33N 39°23' W 072°24'1818.1
2015-Jul-02 02:33N 39°10' W 072°08'1919.3
2015-Jul-02 01:33N 38°56' W 071°51'2019.8
2015-Jul-02 00:33N 38°41' W 071°34'  
2015-Jun-28 01:26N 39°28' W 072°40'1820.1
2015-Jun-28 00:33N 39°41' W 072°55'2020.0
2015-Jun-27 23:33N 39°56' W 073°13'2020.0
2015-Jun-27 22:33N 40°10' W 073°31'1919.0
2015-Jun-27 21:33N 40°25' W 073°47'1514.5
2015-Jun-27 20:33N 40°34' W 074°02'6 6.0
2015-Jun-27 19:31N 40°40' W 074°04'0 0.0
2015-Jun-27 18:31N 40°40' W 074°04'0 0.0
2015-Jun-27 17:31N 40°40' W 074°04'0 0.0
2015-Jun-27 16:31N 40°40' W 074°04'0 0.0
2015-Jun-27 15:31N 40°40' W 074°04'0 0.0
2015-Jun-27 14:31N 40°40' W 074°04'0 0.0
2015-Jun-27 13:31N 40°40' W 074°04'0 0.0
2015-Jun-27 12:31N 40°40' W 074°04'0 0.0
2015-Jun-27 11:31N 40°40' W 074°04'1 0.8
2015-Jun-27 10:34N 40°40' W 074°03'1212.5
2015-Jun-27 09:33N 40°29' W 073°54'1514.5
2015-Jun-27 08:33N 40°21' W 073°38'1616.4
2015-Jun-27 07:34N 40°12' W 073°21'1514.8
2015-Jun-27 06:34N 39°57' W 073°15'1716.5
2015-Jun-27 05:34N 39°41' W 073°16'1918.7
2015-Jun-27 04:33N 39°22' W 073°15'1918.7
2015-Jun-27 03:34N 39°04' W 073°15'1918.7
2015-Jun-27 02:33N 38°45' W 073°13'  
Track history (hours):
 
Tides and Currents Weather Stations Pressure Air Temp Water Temp Dewpoint Dewpoint Depression Visibility Wind Speed Wind Dir Waves Ship Positions

Liberty of The Seas

Last reported at 2015-Jul-03 01:18 UTC. Time now 2015-Jul-03 12:16 UTC.
Position N 39°33' W 072°46'.

Type: Passenger vessel. MMSI: 309436000.

Date/timePositionNaut miles runAvg speedWind from/ knotsBaromVisibWave heightAir tempDewpointWater temp
2015-Jul-03 01:18N 39°33' W 072°46'1518.8
2015-Jul-03 00:30N 39°44' W 072°59'1818.9
2015-Jul-02 23:33N 39°57' W 073°15'1919.0
2015-Jul-02 22:33N 40°11' W 073°32'1818.4
2015-Jul-02 21:33N 40°25' W 073°47'1515.0
2015-Jul-02 20:33N 40°35' W 074°02'5 5.0
2015-Jul-02 19:32N 40°40' W 074°04'0 0.0
2015-Jul-02 18:32N 40°40' W 074°04'0 0.0
2015-Jul-02 17:32N 40°40' W 074°04'0 0.0
2015-Jul-02 16:32N 40°40' W 074°04'0 0.0
2015-Jul-02 15:29N 40°40' W 074°04'0 0.0
2015-Jul-02 14:32N 40°40' W 074°04'0 0.0
2015-Jul-02 13:32N 40°40' W 074°04'0 0.0
2015-Jul-02 12:32N 40°40' W 074°04'0 0.0
2015-Jul-02 11:34N 40°40' W 074°04'3 2.8
2015-Jul-02 10:34N 40°37' W 074°03'10 9.8
2015-Jul-02 09:33N 40°29' W 073°55'1514.7
2015-Jul-02 08:33N 40°22' W 073°39'1616.4
2015-Jul-02 07:33N 40°12' W 073°21'1616.3
2015-Jul-02 06:33N 40°01' W 073°06'1716.4
2015-Jul-02 05:32N 39°48' W 072°53'1616.4
2015-Jul-02 04:33N 39°36' W 072°38'1717.0
2015-Jul-02 03:33N 39°23' W 072°24'1818.1
2015-Jul-02 02:33N 39°10' W 072°08'1919.3
2015-Jul-02 01:33N 38°56' W 071°51'2019.8
2015-Jul-02 00:33N 38°41' W 071°34'  
2015-Jun-28 01:26N 39°28' W 072°40'1820.1
2015-Jun-28 00:33N 39°41' W 072°55'2020.0
2015-Jun-27 23:33N 39°56' W 073°13'2020.0
2015-Jun-27 22:33N 40°10' W 073°31'1919.0
2015-Jun-27 21:33N 40°25' W 073°47'1514.5
2015-Jun-27 20:33N 40°34' W 074°02'6 6.0
2015-Jun-27 19:31N 40°40' W 074°04'0 0.0
2015-Jun-27 18:31N 40°40' W 074°04'0 0.0
2015-Jun-27 17:31N 40°40' W 074°04'0 0.0
2015-Jun-27 16:31N 40°40' W 074°04'0 0.0
2015-Jun-27 15:31N 40°40' W 074°04'0 0.0
2015-Jun-27 14:31N 40°40' W 074°04'0 0.0
2015-Jun-27 13:31N 40°40' W 074°04'0 0.0
2015-Jun-27 12:31N 40°40' W 074°04'0 0.0
2015-Jun-27 11:31N 40°40' W 074°04'1 0.8
2015-Jun-27 10:34N 40°40' W 074°03'1212.5
2015-Jun-27 09:33N 40°29' W 073°54'1514.5
2015-Jun-27 08:33N 40°21' W 073°38'1616.4
2015-Jun-27 07:34N 40°12' W 073°21'1514.8
2015-Jun-27 06:34N 39°57' W 073°15'1716.5
2015-Jun-27 05:34N 39°41' W 073°16'1918.7
2015-Jun-27 04:33N 39°22' W 073°15'1918.7
2015-Jun-27 03:34N 39°04' W 073°15'1918.7
2015-Jun-27 02:33N 38°45' W 073°13'  

Dump ship's entire track history